Time;durP1;ratioP1;P1;durP2;ratioP2;P2;SDS_P1;SDS_P2;PMS_P1;PMS_P2;Temp;Humidity;BMP_temperature;BMP_pressure;BME280_temperature;BME280_humidity;BME280_pressure;Samples;Min_cycle;Max_cycle;Signal;HPM_P1;HPM_P2
2022/09/01 00:02:14;;;;;;;33.30;22.45;;;;;;;13.74;100.00;96790.63;5058432;28;20041;-64
2022/09/01 00:04:43;;;;;;;31.70;22.38;;;;;;;13.72;100.00;96784.72;5056114;28;20492;-64
2022/09/01 00:07:10;;;;;;;35.67;24.38;;;;;;;13.71;100.00;96780.38;5046165;28;20122;-63
2022/09/01 00:09:36;;;;;;;33.53;23.45;;;;;;;13.69;100.00;96777.22;5050908;28;20024;-64
2022/09/01 00:12:04;;;;;;;33.47;24.10;;;;;;;13.67;100.00;96787.06;5050840;28;20128;-64
2022/09/01 00:14:32;;;;;;;31.63;24.45;;;;;;;13.60;100.00;96778.75;5048497;28;20059;-64
2022/09/01 00:17:00;;;;;;;35.45;25.23;;;;;;;13.65;100.00;96789.38;5050770;28;20033;-64
2022/09/01 00:19:26;;;;;;;41.17;27.48;;;;;;;13.64;100.00;96787.81;5046702;28;20085;-64
2022/09/01 00:21:52;;;;;;;35.85;26.77;;;;;;;13.60;100.00;96787.00;5046666;28;20103;-63
2022/09/01 00:24:18;;;;;;;39.42;28.77;;;;;;;13.56;100.00;96782.28;5039582;28;20033;-64
2022/09/01 00:26:44;;;;;;;39.80;30.20;;;;;;;13.52;100.00;96777.91;5050458;28;20036;-65
2022/09/01 00:29:10;;;;;;;43.25;30.17;;;;;;;13.46;100.00;96773.94;5050840;28;20025;-64
2022/09/01 00:31:36;;;;;;;42.47;30.65;;;;;;;13.40;100.00;96787.28;5050946;28;20059;-65
2022/09/01 00:34:02;;;;;;;44.75;32.65;;;;;;;13.34;100.00;96791.53;5050799;28;20033;-64
2022/09/01 00:36:27;;;;;;;46.97;31.88;;;;;;;13.27;100.00;96792.28;5040586;28;20025;-64
2022/09/01 00:38:53;;;;;;;50.83;35.97;;;;;;;13.24;100.00;96790.28;5050542;28;20105;-64
2022/09/01 00:41:23;;;;;;;51.53;35.92;;;;;;;13.20;100.00;96797.72;5048114;28;20033;-64
2022/09/01 00:43:55;;;;;;;53.95;34.95;;;;;;;13.19;100.00;96798.88;5050505;28;20021;-63
2022/09/01 00:46:31;;;;;;;55.80;35.78;;;;;;;13.16;100.00;96794.94;5050450;28;20033;-63
2022/09/01 00:49:01;;;;;;;54.47;37.50;;;;;;;13.13;100.00;96794.91;5050437;28;20040;-63
2022/09/01 00:51:27;;;;;;;57.35;38.00;;;;;;;13.13;100.00;96794.91;5047039;28;20120;-64
2022/09/01 00:53:55;;;;;;;53.20;37.95;;;;;;;13.12;100.00;96794.09;5046991;28;20063;-65
2022/09/01 00:56:22;;;;;;;54.15;37.33;;;;;;;13.10;100.00;96795.66;5050144;28;20033;-64
2022/09/01 00:58:48;;;;;;;56.15;39.00;;;;;;;13.14;100.00;96791.78;5051105;28;20489;-64
2022/09/01 01:01:14;;;;;;;59.40;40.00;;;;;;;13.11;100.00;96789.00;5050310;28;20037;-65
2022/09/01 01:03:44;;;;;;;53.05;35.38;;;;;;;13.14;100.00;96785.47;5054072;28;20037;-64
2022/09/01 01:06:12;;;;;;;53.13;35.25;;;;;;;13.21;100.00;96785.53;5050630;28;20029;-64
2022/09/01 01:08:42;;;;;;;50.17;34.50;;;;;;;13.22;100.00;96786.31;5054077;28;20061;-64
2022/09/01 01:11:16;;;;;;;48.05;33.63;;;;;;;13.27;100.00;96786.78;5053151;28;20437;-64
2022/09/01 01:13:53;;;;;;;45.10;31.77;;;;;;;13.26;100.00;96787.94;5054140;28;20025;-65
2022/09/01 01:16:19;;;;;;;43.13;30.13;;;;;;;13.25;100.00;96793.81;5052588;28;20028;-65
2022/09/01 01:18:45;;;;;;;42.30;31.10;;;;;;;13.26;100.00;96784.41;5053244;28;20108;-65
2022/09/01 01:24:18;;;;;;;38.25;27.02;;;;;;;13.36;100.00;96784.50;5053827;28;20040;-63
2022/09/01 01:26:44;;;;;;;39.30;27.77;;;;;;;13.38;100.00;96778.63;5050326;28;20401;-63
2022/09/01 01:29:10;;;;;;;36.85;27.73;;;;;;;13.37;100.00;96777.03;5052741;28;20040;-64
2022/09/01 01:31:36;;;;;;;37.88;26.08;;;;;;;13.38;100.00;96776.66;5053744;28;20021;-64
2022/09/01 01:34:06;;;;;;;37.05;26.92;;;;;;;13.37;100.00;96771.53;5047245;28;20059;-64
2022/09/01 01:36:35;;;;;;;35.55;26.38;;;;;;;13.41;100.00;96774.31;5053424;28;20033;-63
2022/09/01 01:39:08;;;;;;;39.30;26.83;;;;;;;13.37;100.00;96771.53;5053477;28;20055;-65
2022/09/01 01:41:39;;;;;;;44.38;28.02;;;;;;;13.35;100.00;96771.13;5046017;28;20107;-63
2022/09/01 01:44:06;;;;;;;36.40;25.52;;;;;;;13.37;100.00;96772.31;5051722;28;20547;-63
2022/09/01 01:46:34;;;;;;;32.17;24.13;;;;;;;13.39;100.00;96771.94;5053150;28;20114;-63
2022/09/01 01:49:01;;;;;;;39.30;25.75;;;;;;;13.39;100.00;96767.22;5067620;28;20039;-62
2022/09/01 01:51:30;;;;;;;36.67;25.08;;;;;;;13.40;100.00;96754.28;5053160;28;20033;-64
2022/09/01 01:53:58;;;;;;;37.03;25.37;;;;;;;13.39;100.00;96755.44;5053504;28;20124;-63
2022/09/01 01:56:24;;;;;;;33.67;24.60;;;;;;;13.41;100.00;96757.81;5046272;28;20368;-63
2022/09/01 01:58:53;;;;;;;34.25;24.58;;;;;;;13.45;100.00;96756.66;5053075;28;20389;-63
2022/09/01 02:01:20;;;;;;;32.83;23.37;;;;;;;13.55;100.00;96757.88;5053013;28;20029;-62
2022/09/01 02:03:46;;;;;;;30.67;23.42;;;;;;;13.53;100.00;96761.00;5052840;28;20036;-64
2022/09/01 02:06:12;;;;;;;32.58;22.30;;;;;;;13.56;100.00;96762.22;5052749;28;20383;-64
2022/09/01 02:08:39;;;;;;;27.85;21.60;;;;;;;13.57;100.00;96769.28;5052957;28;20024;-63
2022/09/01 02:11:06;;;;;;;29.33;20.67;;;;;;;13.59;100.00;96775.19;5037980;28;20182;-63
2022/09/01 02:13:32;;;;;;;31.27;22.00;;;;;;;13.64;100.00;96766.56;5052390;28;20021;-63
2022/09/01 02:16:06;;;;;;;29.52;20.83;;;;;;;13.67;100.00;96771.31;5061548;28;20490;-63
2022/09/01 02:18:37;;;;;;;26.52;20.15;;;;;;;13.72;100.00;96767.41;5052943;28;20489;-63
2022/09/01 02:21:09;;;;;;;26.90;20.27;;;;;;;13.79;100.00;96767.44;5054361;28;20048;-63
2022/09/01 02:23:37;;;;;;;27.05;21.23;;;;;;;13.77;100.00;96767.84;5057254;28;20897;-64
2022/09/01 02:26:05;;;;;;;28.67;20.50;;;;;;;13.69;100.00;96762.69;5054031;28;20051;-63
2022/09/01 02:28:35;;;;;;;27.38;19.20;;;;;;;13.69;100.00;96765.44;5053049;28;20091;-62
2022/09/01 02:31:02;;;;;;;25.77;20.00;;;;;;;13.66;100.00;96766.19;5052697;28;20039;-63
2022/09/01 02:33:29;;;;;;;26.02;19.77;;;;;;;13.73;100.00;96760.72;5052429;28;20036;-63
2022/09/01 02:35:58;;;;;;;25.20;18.20;;;;;;;13.66;100.00;96758.72;5052155;28;20108;-65
2022/09/01 02:38:26;;;;;;;27.75;20.20;;;;;;;13.60;100.00;96752.03;5048036;28;20032;-65
2022/09/01 02:40:52;;;;;;;26.15;19.35;;;;;;;13.59;100.00;96766.94;5049876;28;20029;-64
2022/09/01 02:43:19;;;;;;;26.05;19.98;;;;;;;13.55;100.00;96757.88;5053277;28;20036;-64
2022/09/01 02:45:56;;;;;;;30.20;20.13;;;;;;;13.53;100.00;96761.00;5052373;28;20036;-65
2022/09/01 02:48:25;;;;;;;30.40;21.85;;;;;;;13.60;100.00;96759.50;5052334;28;20194;-65
2022/09/01 02:50:51;;;;;;;31.25;22.65;;;;;;;13.54;100.00;96759.03;5051990;28;20390;-65
2022/09/01 02:53:16;;;;;;;30.00;20.58;;;;;;;13.55;100.00;96755.91;5042577;28;20037;-64
2022/09/01 02:55:42;;;;;;;29.70;21.48;;;;;;;13.57;100.00;96761.03;5052923;28;20029;-63
2022/09/01 02:58:15;;;;;;;31.45;20.88;;;;;;;13.55;100.00;96763.38;5057575;28;20121;-64
2022/09/01 03:00:42;;;;;;;27.52;19.73;;;;;;;13.62;100.00;96759.91;5054531;28;20078;-65
2022/09/01 03:03:08;;;;;;;29.70;21.25;;;;;;;13.55;100.00;96760.63;5052034;28;20128;-65
2022/09/01 03:05:37;;;;;;;29.50;21.88;;;;;;;13.49;100.00;96754.72;5051390;28;20554;-64
2022/09/01 03:08:09;;;;;;;31.88;21.83;;;;;;;13.46;100.00;96755.47;5041074;28;20041;-64
2022/09/01 03:10:40;;;;;;;28.67;21.13;;;;;;;13.45;100.00;96750.34;5051935;28;20039;-65
2022/09/01 03:13:08;;;;;;;27.65;20.25;;;;;;;13.50;100.00;96750.78;5050499;28;20032;-64
2022/09/01 03:15:35;;;;;;;35.65;21.83;;;;;;;13.52;100.00;96744.88;5046869;28;20036;-65
2022/09/01 03:18:02;;;;;;;30.33;21.65;;;;;;;13.49;100.00;96746.47;5049759;28;20036;-64
2022/09/01 03:20:28;;;;;;;30.33;21.95;;;;;;;13.49;100.00;96746.47;5050997;28;20400;-64
2022/09/01 03:22:56;;;;;;;29.38;21.15;;;;;;;13.49;100.00;96746.47;5058441;28;20041;-65
2022/09/01 03:25:23;;;;;;;31.77;21.52;;;;;;;13.52;100.00;96739.38;5051156;28;20043;-66
2022/09/01 03:27:50;;;;;;;31.25;21.38;;;;;;;13.49;100.00;96743.72;5051485;28;20048;-65
2022/09/01 03:30:16;;;;;;;25.98;19.67;;;;;;;13.56;100.00;96746.50;5044509;28;20033;-66
2022/09/01 03:32:41;;;;;;;24.98;19.23;;;;;;;13.60;100.00;96742.97;5050184;28;20489;-64
2022/09/01 03:35:08;;;;;;;24.23;17.58;;;;;;;13.62;100.00;96746.13;5051504;28;20032;-65
2022/09/01 03:37:35;;;;;;;24.48;18.38;;;;;;;13.60;100.00;96749.28;5049248;28;20446;-65
2022/09/01 03:40:03;;;;;;;26.75;17.75;;;;;;;13.63;100.00;96742.19;5051575;28;20170;-65
2022/09/01 03:42:29;;;;;;;24.10;17.95;;;;;;;13.61;100.00;96741.78;5051663;28;20036;-64
2022/09/01 03:44:56;;;;;;;21.13;15.55;;;;;;;13.66;100.00;96731.19;5051265;28;20474;-65
2022/09/01 03:47:23;;;;;;;23.73;15.30;;;;;;;13.79;100.00;96736.38;5051034;28;20039;-65
2022/09/01 03:49:49;;;;;;;20.25;15.23;;;;;;;13.78;100.00;96743.84;5051081;28;20029;-62
2022/09/01 03:52:16;;;;;;;21.42;15.23;;;;;;;13.79;100.00;96744.63;5042434;28;20094;-65
2022/09/01 03:54:44;;;;;;;21.63;13.95;;;;;;;13.70;100.00;96740.28;5051080;28;20033;-66
2022/09/01 03:57:09;;;;;;;20.52;14.82;;;;;;;13.75;100.00;96739.09;5051156;28;20033;-65
2022/09/01 03:59:43;;;;;;;17.77;13.52;;;;;;;13.68;100.00;96742.59;5045048;28;20119;-64
2022/09/01 04:02:10;;;;;;;20.88;14.07;;;;;;;13.68;100.00;96734.34;5050901;28;20057;-64
2022/09/01 04:04:36;;;;;;;21.80;14.68;;;;;;;13.58;100.00;96732.34;5046356;28;20048;-64
2022/09/01 04:07:01;;;;;;;21.92;13.30;;;;;;;13.57;100.00;96736.28;5048632;28;20107;-64
2022/09/01 04:09:27;;;;;;;19.23;13.75;;;;;;;13.56;100.00;96734.72;5050979;28;20033;-65
2022/09/01 04:11:53;;;;;;;19.85;14.27;;;;;;;13.55;100.00;96736.66;5050773;28;20029;-65
2022/09/01 04:14:19;;;;;;;19.73;14.07;;;;;;;13.52;100.00;96739.38;5050764;28;20446;-65
2022/09/01 04:19:35;;;;;;;19.40;14.65;;;;;;;13.48;100.00;96742.13;5045292;28;20086;-65
2022/09/01 04:22:01;;;;;;;20.25;14.60;;;;;;;13.42;100.00;96738.16;5038363;28;20026;-65
2022/09/01 04:24:29;;;;;;;19.95;14.63;;;;;;;13.46;100.00;96729.94;5050615;28;20040;-64
2022/09/01 04:26:57;;;;;;;18.95;14.38;;;;;;;13.50;100.00;96739.75;5057398;28;20032;-66
2022/09/01 04:29:26;;;;;;;24.15;15.82;;;;;;;13.49;100.00;96731.91;5055422;28;20036;-67
2022/09/01 04:32:00;;;;;;;21.05;14.95;;;;;;;13.45;100.00;96731.09;5051149;28;20490;-65
2022/09/01 04:34:27;;;;;;;25.65;17.20;;;;;;;13.39;100.00;96736.16;5051216;28;20033;-66
2022/09/01 04:36:53;;;;;;;23.65;16.17;;;;;;;13.43;100.00;96730.69;5051576;28;20398;-66
2022/09/01 04:39:19;;;;;;;22.95;16.75;;;;;;;13.49;100.00;96731.91;5054903;28;20094;-66
2022/09/01 04:41:45;;;;;;;26.00;17.55;;;;;;;13.54;100.00;96723.28;5054540;28;20037;-66
2022/09/01 04:44:14;;;;;;;25.17;17.85;;;;;;;13.61;100.00;96728.03;5055395;28;20028;-66
2022/09/01 04:46:41;;;;;;;25.95;18.55;;;;;;;13.60;100.00;96721.75;5054481;28;20033;-65
2022/09/01 04:49:10;;;;;;;24.90;17.95;;;;;;;13.60;100.00;96720.97;5047282;28;20403;-65
2022/09/01 04:51:43;;;;;;;24.65;17.33;;;;;;;13.54;100.00;96728.78;5054178;28;20036;-66
2022/09/01 04:54:11;;;;;;;26.90;17.77;;;;;;;13.50;100.00;96730.72;5061779;28;20060;-66
2022/09/01 04:56:36;;;;;;;26.45;17.98;;;;;;;13.55;100.00;96725.66;5062362;28;20052;-67
2022/09/01 04:59:05;;;;;;;27.05;19.40;;;;;;;13.49;100.00;96726.41;5054369;28;20453;-69
2022/09/01 05:01:41;;;;;;;24.27;17.67;;;;;;;13.51;100.00;96727.59;5047073;28;20056;-68
2022/09/01 05:04:13;;;;;;;25.83;18.60;;;;;;;13.57;100.00;96736.28;5053980;28;20033;-67
2022/09/01 05:06:43;;;;;;;26.10;17.80;;;;;;;13.61;100.00;96734.31;5053811;28;20056;-67
2022/09/01 05:09:11;;;;;;;32.75;18.35;;;;;;;13.67;100.00;96732.78;5054177;28;20095;-68
2022/09/01 05:11:38;;;;;;;25.88;17.63;;;;;;;13.65;100.00;96731.59;5053877;28;20044;-67
2022/09/01 05:14:05;;;;;;;24.95;18.95;;;;;;;13.68;100.00;96731.59;5054050;28;20202;-67
2022/09/01 05:16:32;;;;;;;26.10;18.25;;;;;;;13.77;100.00;96737.56;5048992;28;20033;-67
2022/09/01 05:18:57;;;;;;;27.55;18.23;;;;;;;13.82;100.00;96736.38;5053771;28;20067;-67
2022/09/01 05:21:27;;;;;;;23.10;16.02;;;;;;;13.93;100.00;96734.47;5053861;28;20116;-66
2022/09/01 05:23:53;;;;;;;25.13;17.15;;;;;;;13.94;100.00;96738.81;5050970;28;20049;-67
2022/09/01 05:26:25;;;;;;;26.55;18.02;;;;;;;13.93;100.00;96744.69;5069034;28;20033;-66
2022/09/01 05:28:56;;;;;;;26.35;19.33;;;;;;;13.87;100.00;96744.28;5060465;28;20783;-65
2022/09/01 05:31:23;;;;;;;29.02;18.58;;;;;;;13.88;100.00;96742.31;5061053;28;20028;-65
2022/09/01 05:33:50;;;;;;;27.83;18.73;;;;;;;13.97;100.00;96739.97;5054415;28;20394;-66
2022/09/01 05:36:18;;;;;;;26.50;19.33;;;;;;;13.97;100.00;96745.47;5053621;28;20355;-66
2022/09/01 05:38:46;;;;;;;26.20;18.95;;;;;;;14.12;100.00;96735.31;5038133;28;20537;-66
2022/09/01 05:41:14;;;;;;;25.35;17.70;;;;;;;14.18;100.00;96728.25;5053066;28;20115;-65
2022/09/01 05:43:45;;;;;;;26.80;18.17;;;;;;;14.28;100.00;96744.03;5053636;28;20104;-65
2022/09/01 05:46:15;;;;;;;27.05;18.65;;;;;;;14.32;100.00;96744.03;5055022;28;20040;-65
2022/09/01 05:48:42;;;;;;;26.17;18.35;;;;;;;14.34;100.00;96756.22;5053520;28;20083;-65
2022/09/01 05:51:10;;;;;;;27.48;18.10;;;;;;;14.42;100.00;96736.97;5053128;28;20029;-65
2022/09/01 05:53:37;;;;;;;24.05;17.48;;;;;;;14.45;100.00;96738.94;5048169;28;20029;-65
2022/09/01 05:56:08;;;;;;;26.05;18.40;;;;;;;14.47;100.00;96740.13;5053094;28;20036;-66
2022/09/01 05:58:35;;;;;;;22.30;17.27;;;;;;;14.52;100.00;96739.72;5052081;28;20486;-66
2022/09/01 06:01:01;;;;;;;21.05;16.52;;;;;;;14.57;100.00;96735.00;5046273;28;20486;-66
2022/09/01 06:03:27;;;;;;;23.27;16.48;;;;;;;14.64;100.00;96737.78;5053073;28;20037;-68
2022/09/01 06:05:54;;;;;;;21.13;15.68;;;;;;;14.72;100.00;96742.16;5046124;28;20052;-67
2022/09/01 06:08:23;;;;;;;26.13;16.60;;;;;;;14.76;100.00;96740.16;5051716;28;20056;-66
2022/09/01 06:10:50;;;;;;;22.17;15.45;;;;;;;14.87;100.00;96740.19;5052238;28;20036;-67
2022/09/01 06:13:20;;;;;;;19.90;14.07;;;;;;;14.91;100.00;96733.50;5053833;28;20028;-67
2022/09/01 06:15:52;;;;;;;18.45;14.38;;;;;;;15.02;100.00;96739.00;5051026;28;20029;-67
2022/09/01 06:18:20;;;;;;;20.20;14.65;;;;;;;14.93;100.00;96746.88;5044685;28;20037;-66
2022/09/01 06:20:46;;;;;;;16.00;12.55;;;;;;;14.98;100.00;96745.69;5053030;28;20032;-67
2022/09/01 06:23:14;;;;;;;19.23;14.05;;;;;;;15.05;100.00;96734.66;5052759;28;20489;-67
2022/09/01 06:25:44;;;;;;;17.88;12.52;;;;;;;15.12;100.00;96742.94;5053730;28;20037;-67
2022/09/01 06:28:11;;;;;;;16.90;12.65;;;;;;;15.17;100.00;96741.75;5061081;28;20033;-67
2022/09/01 06:30:37;;;;;;;17.63;12.93;;;;;;;15.20;100.00;96746.47;5047891;28;20033;-65
2022/09/01 06:33:08;;;;;;;14.82;11.32;;;;;;;15.26;100.00;96750.41;5053066;28;20036;-66
2022/09/01 06:35:35;;;;;;;17.30;11.98;;;;;;;15.38;100.00;96743.69;5052261;28;20568;-66
2022/09/01 06:38:02;;;;;;;15.48;11.68;;;;;;;15.38;100.00;96744.47;5053671;28;20037;-67
2022/09/01 06:40:27;;;;;;;16.60;12.00;;;;;;;15.47;100.00;96739.31;5049634;28;20048;-68
2022/09/01 06:42:53;;;;;;;21.55;12.70;;;;;;;15.41;100.00;96749.22;5035268;28;20049;-67
2022/09/01 06:45:21;;;;;;;19.73;13.70;;;;;;;15.40;100.00;96736.59;5039468;28;20043;-66
2022/09/01 06:47:49;;;;;;;20.88;13.68;;;;;;;15.44;100.00;96745.63;5073522;28;20036;-67
2022/09/01 06:50:18;;;;;;;17.83;12.07;;;;;;;15.58;100.00;96746.81;5058911;28;20094;-66
2022/09/01 06:52:45;;;;;;;15.13;11.57;;;;;;;15.70;100.00;96742.81;5063989;28;20051;-65
2022/09/01 06:55:13;;;;;;;18.58;11.93;;;;;;;15.74;100.00;96751.91;5059878;28;20045;-66
2022/09/01 06:57:40;;;;;;;17.30;12.10;;;;;;;15.93;100.00;96745.91;5065035;28;20346;-66
2022/09/01 07:00:19;;;;;;;17.50;12.07;;;;;;;16.09;100.00;96750.97;5060058;28;20053;-67
2022/09/01 07:02:53;;;;;;;13.60;10.52;;;;;;;16.26;100.00;96752.09;5074343;28;20562;-66
2022/09/01 07:05:20;;;;;;;15.52;10.38;;;;;;;16.36;100.00;96754.00;5075890;28;20040;-66
2022/09/01 07:07:54;;;;;;;15.43;10.10;;;;;;;16.56;100.00;96762.56;5083099;28;20142;-65
2022/09/01 07:10:22;;;;;;;11.40;9.30;;;;;;;17.11;100.00;96757.47;5078305;28;20480;-66
2022/09/01 07:12:49;;;;;;;12.88;8.75;;;;;;;16.92;100.00;96764.34;5078672;28;20454;-67
2022/09/01 07:15:16;;;;;;;14.43;9.00;;;;;;;16.99;100.00;96764.28;5060310;28;20106;-65
2022/09/01 07:17:54;;;;;;;12.23;8.90;;;;;;;16.88;100.00;96764.34;5074022;28;20087;-66
2022/09/01 07:20:22;;;;;;;15.73;8.88;;;;;;;16.89;100.00;96768.72;5070947;28;20035;-66
2022/09/01 07:22:48;;;;;;;13.25;8.45;;;;;;;17.06;100.00;96764.22;5074563;28;20036;-66
2022/09/01 07:25:14;;;;;;;10.80;7.90;;;;;;;17.58;100.00;96755.81;5077612;28;20058;-67
2022/09/01 07:27:49;;;;;;;13.35;8.27;;;;;;;17.78;100.00;96769.84;5081790;28;20036;-66
2022/09/01 07:30:18;;;;;;;8.77;6.60;;;;;;;18.61;100.00;96770.84;5068706;28;20098;-67
2022/09/01 07:32:45;;;;;;;11.03;7.10;;;;;;;18.17;100.00;96773.41;5077766;28;20036;-66
2022/09/01 07:35:18;;;;;;;12.35;7.38;;;;;;;17.84;100.00;96778.50;5077142;28;20040;-67
2022/09/01 07:37:47;;;;;;;8.75;6.88;;;;;;;17.80;100.00;96772.22;5081148;28;20074;-65
2022/09/01 07:40:17;;;;;;;9.97;7.10;;;;;;;17.70;100.00;96770.34;5076925;28;20401;-67
2022/09/01 07:42:46;;;;;;;10.77;6.70;;;;;;;18.51;100.00;96789.19;5082851;28;20040;-66
2022/09/01 07:45:14;;;;;;;9.98;7.63;;;;;;;17.73;100.00;96783.38;5056825;28;20048;-66
2022/09/01 07:47:39;;;;;;;9.32;7.15;;;;;;;17.60;100.00;96785.09;5066373;28;20066;-67
2022/09/01 07:50:11;;;;;;;12.50;7.10;;;;;;;17.60;100.00;96782.34;5075775;28;20036;-66
2022/09/01 07:52:43;;;;;;;8.23;6.68;;;;;;;17.87;100.00;96780.47;5081961;28;20067;-66
2022/09/01 07:55:14;;;;;;;8.57;5.97;;;;;;;17.95;100.00;96789.47;5076512;28;20097;-66
2022/09/01 07:57:41;;;;;;;8.60;6.88;;;;;;;17.96;100.00;96788.28;5074124;28;20072;-66
2022/09/01 08:00:11;;;;;;;9.25;6.47;;;;;;;18.33;100.00;96787.47;5080151;28;20036;-66
2022/09/01 08:02:39;;;;;;;10.55;6.13;;;;;;;17.82;100.00;96789.22;5067509;28;20413;-66
2022/09/01 08:05:10;;;;;;;11.43;7.20;;;;;;;17.75;100.00;96786.50;5057172;28;20048;-66
2022/09/01 08:07:36;;;;;;;9.55;6.60;;;;;;;17.63;100.00;96790.59;5060792;28;20062;-67
2022/09/01 08:10:07;;;;;;;10.18;5.80;;;;;;;17.79;100.00;96790.06;5060129;28;20039;-65
2022/09/01 08:12:34;;;;;;;10.30;5.88;;;;;;;17.74;100.00;96788.50;5061425;28;20054;-66
2022/09/01 08:15:06;;;;;;;7.35;5.47;;;;;;;18.00;100.00;96791.81;5073228;28;20080;-66
2022/09/01 08:17:31;;;;;;;8.07;5.72;;;;;;;18.71;100.00;96803.97;5064256;28;20079;-67
2022/09/01 08:19:57;;;;;;;8.30;5.30;;;;;;;18.70;100.00;96802.41;5079031;28;20068;-67
2022/09/01 08:22:24;;;;;;;5.95;4.88;;;;;;;18.03;100.00;96795.75;5077284;28;20489;-66
2022/09/01 08:24:51;;;;;;;7.85;5.15;;;;;;;18.09;100.00;96803.19;5081951;28;20040;-67
2022/09/01 08:27:17;;;;;;;9.18;5.30;;;;;;;18.39;100.00;96801.63;5063568;28;20037;-67
2022/09/01 08:29:43;;;;;;;6.72;4.53;;;;;;;18.85;100.00;96799.44;5077373;28;20374;-67
2022/09/01 08:32:10;;;;;;;6.55;5.00;;;;;;;19.46;100.00;96804.03;5064388;28;20102;-67
2022/09/01 08:34:36;;;;;;;7.35;5.22;;;;;;;18.23;100.00;96802.22;5077067;28;20429;-66
2022/09/01 08:37:03;;;;;;;6.90;5.15;;;;;;;18.02;100.00;96797.72;5080341;28;20032;-69
2022/09/01 08:39:29;;;;;;;7.63;4.47;;;;;;;18.15;100.00;96807.09;5060702;28;20139;-68
2022/09/01 08:42:36;;;;;;;6.03;4.65;;;;;;;17.89;100.00;96807.78;5068078;28;20124;-68
2022/09/01 08:45:12;;;;;;;7.32;5.35;;;;;;;17.72;100.00;96803.97;5040571;28;20087;-67
2022/09/01 08:47:38;;;;;;;5.82;4.60;;;;;;;17.91;100.00;96800.59;5063175;28;20048;-66
2022/09/01 08:50:05;;;;;;;7.55;4.28;;;;;;;18.41;100.00;96809.53;5068553;28;20511;-66
2022/09/01 08:52:40;;;;;;;6.63;4.50;;;;;;;18.30;100.00;96813.22;5057961;28;20161;-66
2022/09/01 08:55:20;;;;;;;6.68;4.60;;;;;;;18.66;100.00;96809.22;5037623;28;20041;-66
2022/09/01 08:57:50;;;;;;;7.00;4.22;;;;;;;19.21;100.00;96810.81;5041969;28;20115;-66
2022/09/01 09:00:19;;;;;;;6.10;3.80;;;;;;;19.95;98.69;96806.34;5035599;28;20136;-67
2022/09/01 09:02:50;;;;;;;7.93;4.43;;;;;;;19.32;100.00;96805.06;5040113;28;20055;-66
2022/09/01 09:05:38;;;;;;;6.30;4.53;;;;;;;18.42;100.00;96811.91;5036625;28;20053;-66
2022/09/01 09:08:41;;;;;;;9.35;4.57;;;;;;;18.97;100.00;96803.66;5036773;28;20103;-67
2022/09/01 09:11:30;;;;;;;6.10;4.20;;;;;;;19.43;100.00;96811.22;5031866;28;20549;-67
2022/09/01 09:13:58;;;;;;;7.00;4.45;;;;;;;19.43;100.00;96804.91;5040650;28;20120;-68
2022/09/01 09:16:47;;;;;;;6.85;4.38;;;;;;;18.63;100.00;96796.94;5031783;28;20164;-67
2022/09/01 09:19:21;;;;;;;6.25;4.40;;;;;;;18.50;100.00;96801.50;5036100;28;20045;-66
2022/09/01 09:21:50;;;;;;;5.53;4.10;;;;;;;18.45;100.00;96802.72;5044710;28;20508;-67
2022/09/01 09:24:26;;;;;;;6.45;3.97;;;;;;;18.56;100.00;96807.38;5039579;28;20129;-67
2022/09/01 09:26:54;;;;;;;6.55;4.43;;;;;;;18.42;100.00;96805.56;5042494;28;20068;-66
2022/09/01 09:29:21;;;;;;;6.93;4.40;;;;;;;18.26;100.00;96806.94;5032478;28;20048;-67
2022/09/01 09:31:47;;;;;;;6.60;4.07;;;;;;;19.00;100.00;96802.81;5040900;28;20049;-66
2022/09/01 09:34:34;;;;;;;6.57;4.30;;;;;;;18.44;100.00;96805.91;5038554;28;20041;-66
2022/09/01 09:37:23;;;;;;;6.00;4.07;;;;;;;18.79;100.00;96803.88;5043911;28;20037;-66
2022/09/01 09:40:10;;;;;;;7.30;3.80;;;;;;;19.05;100.00;96802.31;5048934;28;20039;-66
2022/09/01 09:42:38;;;;;;;5.28;3.33;;;;;;;18.86;100.00;96787.16;5064617;28;20493;-66
2022/09/01 09:45:15;;;;;;;4.63;3.17;;;;;;;19.11;100.00;96797.88;5055845;28;20089;-67
2022/09/01 09:47:43;;;;;;;4.43;3.30;;;;;;;18.99;100.00;96802.00;5064993;28;20041;-66
2022/09/01 09:50:16;;;;;;;7.43;3.53;;;;;;;18.83;100.00;96799.84;5039262;28;20044;-66
2022/09/01 09:52:45;;;;;;;7.00;3.67;;;;;;;18.85;100.00;96794.69;5045186;28;20045;-65
2022/09/01 09:55:29;;;;;;;7.60;4.20;;;;;;;19.06;100.00;96787.25;5040638;28;20037;-66
2022/09/01 09:57:59;;;;;;;7.72;3.50;;;;;;;20.55;95.00;96793.22;5037481;28;20132;-67
2022/09/01 10:00:33;;;;;;;6.78;3.92;;;;;;;19.47;98.55;96784.16;5034236;28;20051;-67
2022/09/01 10:03:05;;;;;;;5.93;3.47;;;;;;;18.63;100.00;96782.31;5042868;28;20446;-66
2022/09/01 10:05:36;;;;;;;9.02;3.80;;;;;;;18.40;100.00;96777.47;5048154;28;20107;-66
2022/09/01 10:08:03;;;;;;;4.38;3.38;;;;;;;18.99;100.00;96782.56;5051021;28;20048;-67
2022/09/01 10:10:40;;;;;;;5.60;3.70;;;;;;;19.33;96.98;96776.09;5053211;28;20057;-66
2022/09/01 10:13:16;;;;;;;4.47;3.50;;;;;;;19.77;98.17;96773.34;5049697;28;20051;-67
2022/09/01 10:15:47;;;;;;;4.55;2.90;;;;;;;20.27;93.03;96774.34;5052553;28;20040;-67
2022/09/01 10:18:22;;;;;;;3.88;2.90;;;;;;;20.09;93.52;96780.28;5057532;28;20436;-66
2022/09/01 10:20:55;;;;;;;4.38;2.60;;;;;;;21.56;90.70;96763.03;5031051;28;20037;-67
2022/09/01 10:23:23;;;;;;;4.00;2.85;;;;;;;20.77;90.84;96768.50;5028055;28;20462;-66
2022/09/01 10:25:51;;;;;;;3.78;2.78;;;;;;;20.38;92.57;96772.94;5032568;28;20044;-67
2022/09/01 10:28:22;;;;;;;6.20;3.40;;;;;;;19.51;94.65;96777.78;5032379;28;20045;-67
2022/09/01 10:30:51;;;;;;;6.13;3.67;;;;;;;19.33;96.35;96778.09;5033664;28;20076;-68
2022/09/01 10:33:18;;;;;;;7.80;3.40;;;;;;;19.21;97.70;96776.69;5029329;28;20099;-67
2022/09/01 10:35:46;;;;;;;5.05;3.72;;;;;;;19.59;98.34;96766.13;5034270;28;20038;-67
2022/09/01 10:38:21;;;;;;;5.82;3.95;;;;;;;19.83;95.19;96766.88;5029041;28;20087;-67
2022/09/01 10:41:05;;;;;;;6.35;4.18;;;;;;;19.89;95.84;96771.94;5033561;28;20060;-67
2022/09/01 10:43:41;;;;;;;4.85;3.13;;;;;;;20.07;94.51;96758.47;5034970;28;20045;-67
2022/09/01 10:46:26;;;;;;;4.78;3.22;;;;;;;20.26;91.22;96768.03;5030216;28;20044;-66
2022/09/01 10:48:54;;;;;;;7.50;5.47;;;;;;;20.41;93.10;96763.72;5031948;28;20070;-66
2022/09/01 10:51:19;;;;;;;5.35;3.60;;;;;;;20.34;91.15;96757.53;5051602;28;20120;-66
2022/09/01 10:53:52;;;;;;;5.05;3.47;;;;;;;20.35;89.49;96761.88;5038436;28;20096;-66
2022/09/01 10:56:36;;;;;;;3.80;2.92;;;;;;;21.38;84.54;96761.47;5037169;28;20538;-66
2022/09/01 10:59:07;;;;;;;4.40;2.40;;;;;;;21.28;83.37;96759.72;5053815;28;20072;-66
2022/09/01 11:01:38;;;;;;;4.03;2.40;;;;;;;21.19;86.00;96760.38;5048576;28;20037;-65
2022/09/01 11:04:06;;;;;;;3.65;2.78;;;;;;;20.89;84.59;96755.13;5043318;28;20425;-67
2022/09/01 11:06:41;;;;;;;4.32;2.42;;;;;;;20.85;91.08;96754.41;5050668;28;20037;-66
2022/09/01 11:09:33;;;;;;;3.95;2.78;;;;;;;20.18;86.06;96761.03;5050433;28;20070;-67
2022/09/01 11:12:17;;;;;;;3.60;2.70;;;;;;;20.12;90.78;96757.97;5053157;28;20064;-65
2022/09/01 11:14:51;;;;;;;3.92;2.97;;;;;;;20.29;88.45;96753.22;5055723;28;20539;-66
2022/09/01 11:17:38;;;;;;;3.25;2.40;;;;;;;21.28;86.40;96747.81;5029077;28;20446;-66
2022/09/01 11:20:34;;;;;;;3.90;2.63;;;;;;;20.94;84.26;96763.75;5028864;28;20045;-66
2022/09/01 11:23:09;;;;;;;3.28;2.50;;;;;;;20.10;90.07;96760.41;5033789;28;20049;-66
2022/09/01 11:25:49;;;;;;;5.38;2.40;;;;;;;20.48;91.37;96760.00;5049863;28;20045;-66
2022/09/01 11:28:14;;;;;;;4.53;2.67;;;;;;;21.36;86.42;96755.56;5039212;28;20041;-66
2022/09/01 11:30:55;;;;;;;4.32;2.53;;;;;;;21.17;84.45;96759.22;5051838;28;20044;-66
2022/09/01 11:33:48;;;;;;;4.25;2.30;;;;;;;21.17;84.54;96753.66;5044161;28;20033;-65
2022/09/01 11:36:35;;;;;;;3.33;2.50;;;;;;;20.91;84.78;96759.03;5050079;28;20135;-65